sensor_id;sensor_type;location;lat;lon;timestamp;pressure;altitude;pressure_sealevel;temperature;humidity
52935;BME280;38802;50.198;19.796;2023-05-07T00:02:22;96272.63;;;8.30;95.71
52935;BME280;38802;50.198;19.796;2023-05-07T00:04:50;96279.41;;;8.29;95.78
52935;BME280;38802;50.198;19.796;2023-05-07T00:07:19;96278.52;;;8.27;95.80
52935;BME280;38802;50.198;19.796;2023-05-07T00:09:47;96274.21;;;8.27;95.83
52935;BME280;38802;50.198;19.796;2023-05-07T00:12:15;96279.12;;;8.24;95.83
52935;BME280;38802;50.198;19.796;2023-05-07T00:14:43;96275.58;;;8.22;95.92
52935;BME280;38802;50.198;19.796;2023-05-07T00:17:12;96273.85;;;8.22;95.91
52935;BME280;38802;50.198;19.796;2023-05-07T00:19:40;96271.39;;;8.20;95.78
52935;BME280;38802;50.198;19.796;2023-05-07T00:22:08;96273.79;;;8.20;95.89
52935;BME280;38802;50.198;19.796;2023-05-07T00:24:36;96271.79;;;8.19;95.98
52935;BME280;38802;50.198;19.796;2023-05-07T00:27:04;96270.19;;;8.20;96.04
52935;BME280;38802;50.198;19.796;2023-05-07T00:29:33;96275.52;;;8.23;95.98
52935;BME280;38802;50.198;19.796;2023-05-07T00:32:01;96276.78;;;8.22;95.96
52935;BME280;38802;50.198;19.796;2023-05-07T00:34:29;96278.30;;;8.20;95.91
52935;BME280;38802;50.198;19.796;2023-05-07T00:36:57;96277.60;;;8.15;95.95
52935;BME280;38802;50.198;19.796;2023-05-07T00:39:25;96279.23;;;8.14;95.71
52935;BME280;38802;50.198;19.796;2023-05-07T00:41:53;96277.98;;;8.15;95.86
52935;BME280;38802;50.198;19.796;2023-05-07T00:44:21;96282.83;;;8.17;96.10
52935;BME280;38802;50.198;19.796;2023-05-07T00:46:49;96287.21;;;8.14;95.77
52935;BME280;38802;50.198;19.796;2023-05-07T00:49:18;96286.55;;;8.11;95.88
52935;BME280;38802;50.198;19.796;2023-05-07T00:51:46;96288.91;;;8.10;95.97
52935;BME280;38802;50.198;19.796;2023-05-07T00:54:14;96287.87;;;8.07;95.89
52935;BME280;38802;50.198;19.796;2023-05-07T00:56:43;96283.14;;;8.04;96.01
52935;BME280;38802;50.198;19.796;2023-05-07T00:59:12;96287.88;;;7.98;96.28
52935;BME280;38802;50.198;19.796;2023-05-07T01:01:40;96290.69;;;7.93;96.03
52935;BME280;38802;50.198;19.796;2023-05-07T01:04:08;96290.42;;;7.91;96.09
52935;BME280;38802;50.198;19.796;2023-05-07T01:06:37;96290.21;;;7.92;96.18
52935;BME280;38802;50.198;19.796;2023-05-07T01:09:06;96294.00;;;7.90;96.12
52935;BME280;38802;50.198;19.796;2023-05-07T01:11:34;96302.19;;;7.86;95.98
52935;BME280;38802;50.198;19.796;2023-05-07T01:14:02;96301.62;;;7.82;95.87
52935;BME280;38802;50.198;19.796;2023-05-07T01:16:31;96307.45;;;7.77;96.02
52935;BME280;38802;50.198;19.796;2023-05-07T01:18:59;96305.98;;;7.74;95.97
52935;BME280;38802;50.198;19.796;2023-05-07T01:21:32;96310.83;;;7.71;96.16
52935;BME280;38802;50.198;19.796;2023-05-07T01:24:01;96303.19;;;7.64;96.21
52935;BME280;38802;50.198;19.796;2023-05-07T01:26:30;96305.46;;;7.57;96.04
52935;BME280;38802;50.198;19.796;2023-05-07T01:28:58;96308.67;;;7.50;96.06
52935;BME280;38802;50.198;19.796;2023-05-07T01:31:27;96310.25;;;7.47;96.07
52935;BME280;38802;50.198;19.796;2023-05-07T01:33:56;96309.09;;;7.47;95.98
52935;BME280;38802;50.198;19.796;2023-05-07T01:36:27;96310.40;;;7.43;96.09
52935;BME280;38802;50.198;19.796;2023-05-07T01:38:57;96310.73;;;7.40;96.14
52935;BME280;38802;50.198;19.796;2023-05-07T01:41:27;96311.95;;;7.35;95.92
52935;BME280;38802;50.198;19.796;2023-05-07T01:43:57;96311.38;;;7.31;96.05
52935;BME280;38802;50.198;19.796;2023-05-07T01:46:26;96313.00;;;7.27;96.13
52935;BME280;38802;50.198;19.796;2023-05-07T01:48:56;96312.81;;;7.25;96.10
52935;BME280;38802;50.198;19.796;2023-05-07T01:51:24;96313.00;;;7.25;95.98
52935;BME280;38802;50.198;19.796;2023-05-07T01:53:53;96316.73;;;7.23;96.02
52935;BME280;38802;50.198;19.796;2023-05-07T01:56:21;96316.72;;;7.23;96.02
52935;BME280;38802;50.198;19.796;2023-05-07T01:58:50;96310.55;;;7.22;96.07
52935;BME280;38802;50.198;19.796;2023-05-07T02:01:19;96305.66;;;7.21;95.94
52935;BME280;38802;50.198;19.796;2023-05-07T02:03:49;96304.62;;;7.18;95.89
52935;BME280;38802;50.198;19.796;2023-05-07T02:06:21;96303.73;;;7.16;96.25
52935;BME280;38802;50.198;19.796;2023-05-07T02:08:49;96302.60;;;7.10;96.27
52935;BME280;38802;50.198;19.796;2023-05-07T02:11:18;96302.60;;;7.05;96.24
52935;BME280;38802;50.198;19.796;2023-05-07T02:13:46;96308.46;;;7.03;96.06
52935;BME280;38802;50.198;19.796;2023-05-07T02:16:14;96309.41;;;7.01;96.12
52935;BME280;38802;50.198;19.796;2023-05-07T02:18:42;96308.21;;;7.01;96.09
52935;BME280;38802;50.198;19.796;2023-05-07T02:21:10;96309.74;;;6.99;96.09
52935;BME280;38802;50.198;19.796;2023-05-07T02:23:38;96308.89;;;6.99;96.11
52935;BME280;38802;50.198;19.796;2023-05-07T02:26:07;96308.38;;;6.99;96.10
52935;BME280;38802;50.198;19.796;2023-05-07T02:28:35;96309.77;;;6.99;96.03
52935;BME280;38802;50.198;19.796;2023-05-07T02:31:05;96307.01;;;6.96;95.90
52935;BME280;38802;50.198;19.796;2023-05-07T02:33:33;96307.27;;;6.91;96.10
52935;BME280;38802;50.198;19.796;2023-05-07T02:36:08;96310.18;;;6.89;96.01
52935;BME280;38802;50.198;19.796;2023-05-07T02:38:39;96313.25;;;6.87;96.38
52935;BME280;38802;50.198;19.796;2023-05-07T02:41:07;96316.89;;;6.82;96.16
52935;BME280;38802;50.198;19.796;2023-05-07T02:43:36;96317.16;;;6.78;95.94
52935;BME280;38802;50.198;19.796;2023-05-07T02:46:07;96316.41;;;6.79;96.04
52935;BME280;38802;50.198;19.796;2023-05-07T02:48:38;96319.77;;;6.78;96.26
52935;BME280;38802;50.198;19.796;2023-05-07T02:51:06;96317.23;;;6.71;96.13
52935;BME280;38802;50.198;19.796;2023-05-07T02:53:34;96316.00;;;6.67;96.06
52935;BME280;38802;50.198;19.796;2023-05-07T02:56:03;96317.84;;;6.66;96.10
52935;BME280;38802;50.198;19.796;2023-05-07T02:58:31;96319.59;;;6.62;96.06
52935;BME280;38802;50.198;19.796;2023-05-07T03:00:59;96321.97;;;6.63;96.21
52935;BME280;38802;50.198;19.796;2023-05-07T03:03:48;96323.99;;;6.61;95.99
52935;BME280;38802;50.198;19.796;2023-05-07T03:06:16;96327.52;;;6.62;96.28
52935;BME280;38802;50.198;19.796;2023-05-07T03:08:44;96330.95;;;6.60;96.33
52935;BME280;38802;50.198;19.796;2023-05-07T03:11:12;96330.01;;;6.53;96.33
52935;BME280;38802;50.198;19.796;2023-05-07T03:13:40;96330.86;;;6.48;96.25
52935;BME280;38802;50.198;19.796;2023-05-07T03:16:08;96333.95;;;6.45;96.22
52935;BME280;38802;50.198;19.796;2023-05-07T03:18:36;96332.52;;;6.41;96.07
52935;BME280;38802;50.198;19.796;2023-05-07T03:21:04;96335.52;;;6.40;96.10
52935;BME280;38802;50.198;19.796;2023-05-07T03:23:33;96337.52;;;6.38;96.30
52935;BME280;38802;50.198;19.796;2023-05-07T03:26:01;96341.21;;;6.37;96.25
52935;BME280;38802;50.198;19.796;2023-05-07T03:28:29;96347.32;;;6.36;96.13
52935;BME280;38802;50.198;19.796;2023-05-07T03:31:01;96347.73;;;6.33;96.12
52935;BME280;38802;50.198;19.796;2023-05-07T03:33:33;96355.40;;;6.31;96.22
52935;BME280;38802;50.198;19.796;2023-05-07T03:36:01;96357.02;;;6.27;96.23
52935;BME280;38802;50.198;19.796;2023-05-07T03:38:29;96360.25;;;6.23;96.32
52935;BME280;38802;50.198;19.796;2023-05-07T03:40:58;96360.84;;;6.19;96.36
52935;BME280;38802;50.198;19.796;2023-05-07T03:43:26;96365.73;;;6.21;96.23
52935;BME280;38802;50.198;19.796;2023-05-07T03:46:01;96367.48;;;6.23;96.41
52935;BME280;38802;50.198;19.796;2023-05-07T03:48:29;96365.28;;;6.22;96.41
52935;BME280;38802;50.198;19.796;2023-05-07T03:50:58;96374.18;;;6.21;96.34
52935;BME280;38802;50.198;19.796;2023-05-07T03:53:30;96374.42;;;6.17;96.54
52935;BME280;38802;50.198;19.796;2023-05-07T03:55:58;96377.52;;;6.12;96.37
52935;BME280;38802;50.198;19.796;2023-05-07T04:07:19;96379.77;;;6.14;96.28
52935;BME280;38802;50.198;19.796;2023-05-07T04:09:49;96385.63;;;6.17;96.33
52935;BME280;38802;50.198;19.796;2023-05-07T04:12:17;96389.08;;;6.20;96.34
52935;BME280;38802;50.198;19.796;2023-05-07T04:14:46;96388.94;;;6.19;96.29
52935;BME280;38802;50.198;19.796;2023-05-07T04:17:14;96393.37;;;6.23;96.31
52935;BME280;38802;50.198;19.796;2023-05-07T04:19:44;96393.52;;;6.20;96.58
52935;BME280;38802;50.198;19.796;2023-05-07T04:22:15;96397.42;;;6.16;96.46
52935;BME280;38802;50.198;19.796;2023-05-07T04:24:43;96400.33;;;6.14;96.41
52935;BME280;38802;50.198;19.796;2023-05-07T04:27:13;96401.30;;;6.12;96.52
52935;BME280;38802;50.198;19.796;2023-05-07T04:29:41;96405.10;;;6.06;96.52
52935;BME280;38802;50.198;19.796;2023-05-07T04:32:11;96408.50;;;6.04;96.67
52935;BME280;38802;50.198;19.796;2023-05-07T04:34:39;96409.96;;;6.03;96.58
52935;BME280;38802;50.198;19.796;2023-05-07T04:37:09;96415.54;;;6.04;96.53
52935;BME280;38802;50.198;19.796;2023-05-07T04:39:38;96413.06;;;6.06;96.64
52935;BME280;38802;50.198;19.796;2023-05-07T04:56:07;96437.04;;;5.88;96.48
52935;BME280;38802;50.198;19.796;2023-05-07T04:58:40;96435.02;;;5.87;96.27
52935;BME280;38802;50.198;19.796;2023-05-07T05:01:08;96439.95;;;5.88;96.29
52935;BME280;38802;50.198;19.796;2023-05-07T05:03:37;96440.80;;;5.89;96.39
52935;BME280;38802;50.198;19.796;2023-05-07T05:06:08;96444.02;;;5.87;96.40
52935;BME280;38802;50.198;19.796;2023-05-07T05:08:36;96445.48;;;5.83;96.38
52935;BME280;38802;50.198;19.796;2023-05-07T05:11:05;96446.58;;;5.84;96.37
52935;BME280;38802;50.198;19.796;2023-05-07T05:13:35;96452.92;;;5.85;96.38
52935;BME280;38802;50.198;19.796;2023-05-07T05:16:09;96451.61;;;5.81;96.33
52935;BME280;38802;50.198;19.796;2023-05-07T05:18:37;96451.70;;;5.77;96.32
52935;BME280;38802;50.198;19.796;2023-05-07T05:21:06;96455.81;;;5.71;96.34
52935;BME280;38802;50.198;19.796;2023-05-07T05:23:34;96461.00;;;5.71;96.39
52935;BME280;38802;50.198;19.796;2023-05-07T05:26:02;96462.85;;;5.69;96.40
52935;BME280;38802;50.198;19.796;2023-05-07T05:28:32;96471.02;;;5.67;96.36
52935;BME280;38802;50.198;19.796;2023-05-07T05:31:00;96476.87;;;5.68;96.26
52935;BME280;38802;50.198;19.796;2023-05-07T05:33:30;96480.79;;;5.62;96.35
52935;BME280;38802;50.198;19.796;2023-05-07T05:36:03;96483.06;;;5.59;96.27
52935;BME280;38802;50.198;19.796;2023-05-07T05:38:31;96488.55;;;5.56;96.29
52935;BME280;38802;50.198;19.796;2023-05-07T05:40:59;96491.34;;;5.53;96.23
52935;BME280;38802;50.198;19.796;2023-05-07T05:43:29;96495.80;;;5.50;96.52
52935;BME280;38802;50.198;19.796;2023-05-07T05:45:58;96498.95;;;5.44;96.39
52935;BME280;38802;50.198;19.796;2023-05-07T05:48:29;96503.29;;;5.34;96.29
52935;BME280;38802;50.198;19.796;2023-05-07T05:51:00;96508.69;;;5.30;96.36
52935;BME280;38802;50.198;19.796;2023-05-07T05:53:28;96511.16;;;5.26;96.21
52935;BME280;38802;50.198;19.796;2023-05-07T05:55:56;96510.73;;;5.27;96.37
52935;BME280;38802;50.198;19.796;2023-05-07T05:58:25;96511.96;;;5.27;96.30
52935;BME280;38802;50.198;19.796;2023-05-07T06:00:57;96511.45;;;5.27;96.40
52935;BME280;38802;50.198;19.796;2023-05-07T06:03:27;96516.60;;;5.24;96.43
52935;BME280;38802;50.198;19.796;2023-05-07T06:05:55;96517.36;;;5.23;96.50
52935;BME280;38802;50.198;19.796;2023-05-07T06:08:23;96515.23;;;5.24;96.41
52935;BME280;38802;50.198;19.796;2023-05-07T06:10:52;96513.83;;;5.27;96.29
52935;BME280;38802;50.198;19.796;2023-05-07T06:13:20;96518.95;;;5.31;96.44
52935;BME280;38802;50.198;19.796;2023-05-07T06:15:49;96519.56;;;5.36;96.50
52935;BME280;38802;50.198;19.796;2023-05-07T06:18:18;96520.67;;;5.38;96.31
52935;BME280;38802;50.198;19.796;2023-05-07T06:20:45;96522.86;;;5.38;96.49
52935;BME280;38802;50.198;19.796;2023-05-07T06:23:19;96522.05;;;5.34;96.35
52935;BME280;38802;50.198;19.796;2023-05-07T06:25:51;96526.14;;;5.32;96.38
52935;BME280;38802;50.198;19.796;2023-05-07T06:28:21;96530.25;;;5.32;96.36
52935;BME280;38802;50.198;19.796;2023-05-07T06:30:49;96533.34;;;5.35;96.44
52935;BME280;38802;50.198;19.796;2023-05-07T06:33:18;96533.16;;;5.39;96.44
52935;BME280;38802;50.198;19.796;2023-05-07T06:35:48;96533.58;;;5.38;96.38
52935;BME280;38802;50.198;19.796;2023-05-07T06:38:16;96530.93;;;5.39;96.33
52935;BME280;38802;50.198;19.796;2023-05-07T06:40:49;96530.30;;;5.35;96.26
52935;BME280;38802;50.198;19.796;2023-05-07T06:43:17;96530.08;;;5.29;96.29
52935;BME280;38802;50.198;19.796;2023-05-07T06:45:55;96530.20;;;5.30;96.37
52935;BME280;38802;50.198;19.796;2023-05-07T06:48:23;96535.30;;;5.34;96.40
52935;BME280;38802;50.198;19.796;2023-05-07T06:50:57;96540.05;;;5.42;96.54
52935;BME280;38802;50.198;19.796;2023-05-07T06:53:29;96546.75;;;5.45;96.26
52935;BME280;38802;50.198;19.796;2023-05-07T06:55:58;96547.47;;;5.48;96.28
52935;BME280;38802;50.198;19.796;2023-05-07T06:58:26;96552.21;;;5.49;96.30
52935;BME280;38802;50.198;19.796;2023-05-07T07:00:54;96553.30;;;5.48;96.28
52935;BME280;38802;50.198;19.796;2023-05-07T07:03:23;96555.06;;;5.48;96.28
52935;BME280;38802;50.198;19.796;2023-05-07T07:05:52;96558.12;;;5.48;96.31
52935;BME280;38802;50.198;19.796;2023-05-07T07:08:21;96557.83;;;5.45;96.13
52935;BME280;38802;50.198;19.796;2023-05-07T07:10:50;96561.07;;;5.42;96.12
52935;BME280;38802;50.198;19.796;2023-05-07T07:13:19;96565.60;;;5.41;96.19
52935;BME280;38802;50.198;19.796;2023-05-07T07:15:47;96572.62;;;5.45;96.18
52935;BME280;38802;50.198;19.796;2023-05-07T07:18:17;96571.77;;;5.45;96.24
52935;BME280;38802;50.198;19.796;2023-05-07T07:20:46;96570.88;;;5.45;96.16
52935;BME280;38802;50.198;19.796;2023-05-07T07:23:14;96570.78;;;5.47;96.20
52935;BME280;38802;50.198;19.796;2023-05-07T07:25:42;96574.77;;;5.46;96.12
52935;BME280;38802;50.198;19.796;2023-05-07T07:28:11;96577.24;;;5.42;95.96
52935;BME280;38802;50.198;19.796;2023-05-07T07:30:39;96574.83;;;5.39;95.99
52935;BME280;38802;50.198;19.796;2023-05-07T07:33:09;96577.38;;;5.40;95.90
52935;BME280;38802;50.198;19.796;2023-05-07T07:35:38;96585.00;;;5.43;96.08
52935;BME280;38802;50.198;19.796;2023-05-07T07:38:06;96592.08;;;5.45;96.13
52935;BME280;38802;50.198;19.796;2023-05-07T07:40:35;96590.53;;;5.42;95.98
52935;BME280;38802;50.198;19.796;2023-05-07T07:43:03;96593.49;;;5.44;96.06
52935;BME280;38802;50.198;19.796;2023-05-07T07:45:34;96593.67;;;5.47;96.06
52935;BME280;38802;50.198;19.796;2023-05-07T07:48:02;96593.89;;;5.46;95.86
52935;BME280;38802;50.198;19.796;2023-05-07T07:50:32;96602.73;;;5.43;95.93
52935;BME280;38802;50.198;19.796;2023-05-07T07:53:13;96602.08;;;5.39;95.84
52935;BME280;38802;50.198;19.796;2023-05-07T07:55:42;96606.63;;;5.38;96.05
52935;BME280;38802;50.198;19.796;2023-05-07T07:58:11;96608.20;;;5.34;95.96
52935;BME280;38802;50.198;19.796;2023-05-07T08:00:39;96607.42;;;5.32;96.04
52935;BME280;38802;50.198;19.796;2023-05-07T08:03:10;96606.06;;;5.32;95.91
52935;BME280;38802;50.198;19.796;2023-05-07T08:05:42;96610.81;;;5.36;95.84
52935;BME280;38802;50.198;19.796;2023-05-07T08:08:11;96615.40;;;5.38;95.92
52935;BME280;38802;50.198;19.796;2023-05-07T08:10:40;96619.69;;;5.35;95.94
52935;BME280;38802;50.198;19.796;2023-05-07T08:13:14;96621.42;;;5.28;95.85
52935;BME280;38802;50.198;19.796;2023-05-07T08:15:43;96626.92;;;5.22;95.81
52935;BME280;38802;50.198;19.796;2023-05-07T08:18:11;96629.73;;;5.22;95.86
52935;BME280;38802;50.198;19.796;2023-05-07T08:20:40;96631.60;;;5.22;95.74
52935;BME280;38802;50.198;19.796;2023-05-07T08:23:14;96635.41;;;5.22;95.93
52935;BME280;38802;50.198;19.796;2023-05-07T08:25:43;96635.70;;;5.19;95.99
52935;BME280;38802;50.198;19.796;2023-05-07T08:28:19;96632.88;;;5.21;96.03
52935;BME280;38802;50.198;19.796;2023-05-07T08:30:49;96639.23;;;5.28;95.95
52935;BME280;38802;50.198;19.796;2023-05-07T08:33:18;96640.78;;;5.30;95.82
52935;BME280;38802;50.198;19.796;2023-05-07T08:35:46;96647.77;;;5.35;95.92
52935;BME280;38802;50.198;19.796;2023-05-07T08:38:14;96646.91;;;5.35;96.05
52935;BME280;38802;50.198;19.796;2023-05-07T08:40:42;96648.71;;;5.30;95.63
52935;BME280;38802;50.198;19.796;2023-05-07T08:43:16;96652.48;;;5.28;95.79
52935;BME280;38802;50.198;19.796;2023-05-07T08:45:45;96655.06;;;5.25;95.72
52935;BME280;38802;50.198;19.796;2023-05-07T08:48:16;96657.39;;;5.23;95.84
52935;BME280;38802;50.198;19.796;2023-05-07T08:50:50;96661.64;;;5.17;95.71
52935;BME280;38802;50.198;19.796;2023-05-07T08:53:20;96667.91;;;5.13;95.57
52935;BME280;38802;50.198;19.796;2023-05-07T08:55:50;96669.86;;;5.15;95.81
52935;BME280;38802;50.198;19.796;2023-05-07T08:58:19;96674.90;;;5.11;95.88
52935;BME280;38802;50.198;19.796;2023-05-07T09:00:47;96676.27;;;5.05;95.97
52935;BME280;38802;50.198;19.796;2023-05-07T09:03:15;96677.85;;;5.01;95.88
52935;BME280;38802;50.198;19.796;2023-05-07T09:05:46;96680.95;;;5.01;95.97
52935;BME280;38802;50.198;19.796;2023-05-07T09:08:15;96683.05;;;5.00;95.90
52935;BME280;38802;50.198;19.796;2023-05-07T09:10:45;96686.89;;;4.99;95.97
52935;BME280;38802;50.198;19.796;2023-05-07T09:13:13;96685.69;;;4.99;95.92
52935;BME280;38802;50.198;19.796;2023-05-07T09:15:43;96689.11;;;4.96;96.03
52935;BME280;38802;50.198;19.796;2023-05-07T09:18:12;96693.44;;;4.93;96.05
52935;BME280;38802;50.198;19.796;2023-05-07T09:20:42;96696.13;;;4.97;96.12
52935;BME280;38802;50.198;19.796;2023-05-07T09:23:11;96697.06;;;4.99;96.19
52935;BME280;38802;50.198;19.796;2023-05-07T09:25:40;96697.75;;;4.99;96.06
52935;BME280;38802;50.198;19.796;2023-05-07T09:28:14;96702.93;;;5.02;96.13
52935;BME280;38802;50.198;19.796;2023-05-07T09:30:42;96708.84;;;5.04;96.27
52935;BME280;38802;50.198;19.796;2023-05-07T09:33:13;96709.32;;;5.02;96.30
52935;BME280;38802;50.198;19.796;2023-05-07T09:35:44;96708.55;;;5.00;96.11
52935;BME280;38802;50.198;19.796;2023-05-07T09:38:17;96708.73;;;5.00;96.14
52935;BME280;38802;50.198;19.796;2023-05-07T09:41:06;96708.80;;;5.02;96.37
52935;BME280;38802;50.198;19.796;2023-05-07T09:43:40;96709.27;;;5.06;96.22
52935;BME280;38802;50.198;19.796;2023-05-07T09:46:12;96716.52;;;5.05;96.26
52935;BME280;38802;50.198;19.796;2023-05-07T09:48:44;96715.88;;;5.05;96.14
52935;BME280;38802;50.198;19.796;2023-05-07T09:51:28;96715.73;;;5.01;96.13
52935;BME280;38802;50.198;19.796;2023-05-07T09:53:58;96715.52;;;4.99;96.24
52935;BME280;38802;50.198;19.796;2023-05-07T09:56:29;96715.13;;;4.96;96.18
52935;BME280;38802;50.198;19.796;2023-05-07T09:59:00;96718.48;;;4.95;96.24
52935;BME280;38802;50.198;19.796;2023-05-07T10:01:31;96725.98;;;4.96;96.18
52935;BME280;38802;50.198;19.796;2023-05-07T10:04:01;96732.39;;;4.99;96.32
52935;BME280;38802;50.198;19.796;2023-05-07T10:06:31;96735.80;;;4.96;96.24
52935;BME280;38802;50.198;19.796;2023-05-07T10:09:00;96735.11;;;4.96;96.31
52935;BME280;38802;50.198;19.796;2023-05-07T10:11:30;96736.51;;;4.96;96.19
52935;BME280;38802;50.198;19.796;2023-05-07T10:14:00;96737.85;;;4.96;96.14
52935;BME280;38802;50.198;19.796;2023-05-07T10:16:35;96736.09;;;4.97;96.22
52935;BME280;38802;50.198;19.796;2023-05-07T10:19:08;96740.11;;;4.99;96.29
52935;BME280;38802;50.198;19.796;2023-05-07T10:21:44;96744.77;;;5.02;96.31
52935;BME280;38802;50.198;19.796;2023-05-07T10:24:32;96744.06;;;5.02;96.17
52935;BME280;38802;50.198;19.796;2023-05-07T10:27:06;96742.73;;;5.05;96.06
52935;BME280;38802;50.198;19.796;2023-05-07T10:32:43;96748.38;;;5.19;96.16
52935;BME280;38802;50.198;19.796;2023-05-07T10:35:24;96755.33;;;5.24;96.09
52935;BME280;38802;50.198;19.796;2023-05-07T10:37:55;96756.65;;;5.26;95.95
52935;BME280;38802;50.198;19.796;2023-05-07T10:40:25;96760.59;;;5.26;95.92
52935;BME280;38802;50.198;19.796;2023-05-07T10:42:57;96762.78;;;5.27;95.89
52935;BME280;38802;50.198;19.796;2023-05-07T10:45:29;96765.17;;;5.24;95.79
52935;BME280;38802;50.198;19.796;2023-05-07T10:48:14;96765.73;;;5.23;95.85
52935;BME280;38802;50.198;19.796;2023-05-07T10:51:21;96767.30;;;5.23;95.82
52935;BME280;38802;50.198;19.796;2023-05-07T10:56:43;96776.07;;;5.23;95.78
52935;BME280;38802;50.198;19.796;2023-05-07T11:07:38;96778.52;;;5.29;95.33
52935;BME280;38802;50.198;19.796;2023-05-07T11:10:15;96779.31;;;5.27;95.37
52935;BME280;38802;50.198;19.796;2023-05-07T11:12:51;96783.98;;;5.30;95.48
52935;BME280;38802;50.198;19.796;2023-05-07T11:15:38;96780.48;;;5.31;95.50
52935;BME280;38802;50.198;19.796;2023-05-07T11:21:36;96782.17;;;5.38;95.15
52935;BME280;38802;50.198;19.796;2023-05-07T11:24:28;96782.23;;;5.47;95.11
52935;BME280;38802;50.198;19.796;2023-05-07T11:27:00;96780.97;;;5.51;95.32
52935;BME280;38802;50.198;19.796;2023-05-07T11:29:30;96782.67;;;5.57;95.18
52935;BME280;38802;50.198;19.796;2023-05-07T11:32:04;96777.55;;;5.60;95.02
52935;BME280;38802;50.198;19.796;2023-05-07T11:34:40;96778.92;;;5.63;94.96
52935;BME280;38802;50.198;19.796;2023-05-07T11:37:09;96781.91;;;5.65;95.07
52935;BME280;38802;50.198;19.796;2023-05-07T11:39:45;96782.10;;;5.68;94.66
52935;BME280;38802;50.198;19.796;2023-05-07T11:42:31;96789.08;;;5.63;94.45
52935;BME280;38802;50.198;19.796;2023-05-07T11:44:59;96793.05;;;5.60;94.32
52935;BME280;38802;50.198;19.796;2023-05-07T11:47:30;96797.52;;;5.60;94.40
52935;BME280;38802;50.198;19.796;2023-05-07T11:50:04;96797.52;;;5.57;94.18
52935;BME280;38802;50.198;19.796;2023-05-07T11:52:38;96796.70;;;5.56;94.04
52935;BME280;38802;50.198;19.796;2023-05-07T11:55:08;96801.60;;;5.55;93.90
52935;BME280;38802;50.198;19.796;2023-05-07T11:57:36;96804.09;;;5.50;93.69
52935;BME280;38802;50.198;19.796;2023-05-07T12:00:05;96810.15;;;5.53;94.03
52935;BME280;38802;50.198;19.796;2023-05-07T12:02:45;96812.98;;;5.58;93.73
52935;BME280;38802;50.198;19.796;2023-05-07T12:05:13;96816.73;;;5.59;93.74
52935;BME280;38802;50.198;19.796;2023-05-07T12:07:42;96819.66;;;5.55;93.46
52935;BME280;38802;50.198;19.796;2023-05-07T12:10:13;96814.91;;;5.51;93.36
52935;BME280;38802;50.198;19.796;2023-05-07T12:16:47;96813.96;;;5.49;93.60
52935;BME280;38802;50.198;19.796;2023-05-07T12:19:17;96813.30;;;5.52;93.42
52935;BME280;38802;50.198;19.796;2023-05-07T12:21:45;96814.47;;;5.53;93.13
52935;BME280;38802;50.198;19.796;2023-05-07T12:24:14;96816.84;;;5.54;93.29
52935;BME280;38802;50.198;19.796;2023-05-07T12:27:08;96820.02;;;5.55;93.19
52935;BME280;38802;50.198;19.796;2023-05-07T12:29:37;96824.13;;;5.56;93.34
52935;BME280;38802;50.198;19.796;2023-05-07T12:32:13;96825.39;;;5.58;93.24
52935;BME280;38802;50.198;19.796;2023-05-07T12:34:41;96829.73;;;5.60;92.97
52935;BME280;38802;50.198;19.796;2023-05-07T12:37:13;96829.77;;;5.60;92.55
52935;BME280;38802;50.198;19.796;2023-05-07T12:39:47;96834.39;;;5.57;92.68
52935;BME280;38802;50.198;19.796;2023-05-07T12:42:19;96835.52;;;5.58;93.04
52935;BME280;38802;50.198;19.796;2023-05-07T12:44:53;96838.46;;;5.58;92.68
52935;BME280;38802;50.198;19.796;2023-05-07T12:47:22;96842.06;;;5.56;92.50
52935;BME280;38802;50.198;19.796;2023-05-07T12:49:50;96842.31;;;5.54;92.80
52935;BME280;38802;50.198;19.796;2023-05-07T12:52:18;96842.15;;;5.60;92.86
52935;BME280;38802;50.198;19.796;2023-05-07T12:54:47;96841.81;;;5.63;92.70
52935;BME280;38802;50.198;19.796;2023-05-07T13:00:14;96835.89;;;5.68;92.51
52935;BME280;38802;50.198;19.796;2023-05-07T13:02:43;96838.48;;;5.65;92.31
52935;BME280;38802;50.198;19.796;2023-05-07T13:05:12;96841.42;;;5.64;92.17
52935;BME280;38802;50.198;19.796;2023-05-07T13:07:55;96841.17;;;5.62;92.01
52935;BME280;38802;50.198;19.796;2023-05-07T13:10:24;96843.14;;;5.65;91.93
52935;BME280;38802;50.198;19.796;2023-05-07T13:12:52;96841.36;;;5.70;91.85
52935;BME280;38802;50.198;19.796;2023-05-07T13:15:21;96840.98;;;5.70;91.94
52935;BME280;38802;50.198;19.796;2023-05-07T13:17:49;96846.14;;;5.71;91.88
52935;BME280;38802;50.198;19.796;2023-05-07T13:20:18;96845.18;;;5.72;91.62
52935;BME280;38802;50.198;19.796;2023-05-07T13:22:45;96848.40;;;5.70;91.40
52935;BME280;38802;50.198;19.796;2023-05-07T13:25:13;96847.58;;;5.66;91.17
52935;BME280;38802;50.198;19.796;2023-05-07T13:27:42;96852.61;;;5.61;91.08
52935;BME280;38802;50.198;19.796;2023-05-07T13:30:10;96849.70;;;5.58;91.14
52935;BME280;38802;50.198;19.796;2023-05-07T13:32:38;96852.20;;;5.56;91.23
52935;BME280;38802;50.198;19.796;2023-05-07T13:35:06;96852.23;;;5.59;91.39
52935;BME280;38802;50.198;19.796;2023-05-07T13:37:35;96853.48;;;5.61;91.21
52935;BME280;38802;50.198;19.796;2023-05-07T13:40:03;96855.03;;;5.61;91.18
52935;BME280;38802;50.198;19.796;2023-05-07T13:42:32;96854.88;;;5.61;91.13
52935;BME280;38802;50.198;19.796;2023-05-07T13:45:00;96858.61;;;5.59;90.98
52935;BME280;38802;50.198;19.796;2023-05-07T13:47:30;96864.84;;;5.59;91.13
52935;BME280;38802;50.198;19.796;2023-05-07T13:49:58;96863.26;;;5.52;90.59
52935;BME280;38802;50.198;19.796;2023-05-07T13:52:26;96864.52;;;5.45;90.60
52935;BME280;38802;50.198;19.796;2023-05-07T13:54:55;96866.73;;;5.42;90.90
52935;BME280;38802;50.198;19.796;2023-05-07T13:57:24;96866.54;;;5.43;90.95
52935;BME280;38802;50.198;19.796;2023-05-07T13:59:53;96868.42;;;5.46;90.84
52935;BME280;38802;50.198;19.796;2023-05-07T14:02:21;96867.12;;;5.45;90.63
52935;BME280;38802;50.198;19.796;2023-05-07T14:04:49;96863.75;;;5.40;90.56